• Join FlightAware (Why Join?)
  • Login
  • US Flag 
04:12AM EST


 

Airport Tracker/Info


-or-


 

Live Flight TrackerFlight Track Log ✈ UAL4604 ✈ 28-Apr-2013 ✈ KIAH - KRIC

Flight Track Log - Related Links

Times and Time Zones

All times are in EDT time to prevent confusion due to time zone crossing. See the UAL4604 flight status page for this flight to view local times or setup timezone preferences in your user account.

Time Position Orientation Groundspeed Altitude Reporting Facility
EDT Latitude Longitude Course Direction KTS MPH feet Rate Location/Type
01:59PM 29.9617 -95.3436 35° Northeast 151 174 600  Level Houston Center
02:00PM 29.9453 -95.3022 115° Southeast 194 223 2,100 1,380 Climbing Houston Center
02:01PM 29.9667 -95.2725 50° Northeast 230 265 2,800 1,440 Climbing Houston Center
02:02PM 30.0314 -95.2375 25° Northeast 252 290 4,700 2,520 Climbing Houston Center
02:03PM 30.3874 -95.0101 35° Northeast  Level FlightAware Approximate
02:03PM 30.1094 -95.1864 30° Northeast 268 308 8,100  Level Houston Center
02:04PM 30.4875 -94.9333 35° Northeast  Level FlightAware Approximate
02:04PM 30.1744 -95.1433 30° Northeast 270 311 10,300  Level Houston Center
02:05PM 30.2514 -95.0933 29° Northeast 316 364 11,100 1,320 Climbing Houston Center
02:06PM 30.3336 -95.0367 31° Northeast 347 399 13,100 1,560 Climbing Houston Center
02:07PM 30.4194 -94.9817 29° Northeast 354 407 14,400 1,200 Climbing Houston Center
02:08PM 30.5150 -94.9172 30° Northeast 378 435 15,600 1,440 Climbing Houston Center
02:09PM 30.6256 -94.8375 32° Northeast 388 447 17,400 1,500 Climbing Houston Center
02:10PM 30.7144 -94.7669 34° Northeast 390 449 18,800 1,200 Climbing Houston Center
02:11PM 30.8061 -94.6972 33° Northeast 393 452 20,000 1,080 Climbing Houston Center
02:12PM 30.8992 -94.6250 34° Northeast 402 463 21,100 1,080 Climbing Houston Center
02:12PM 30.9375 -94.5944 34° Northeast 395 455 21,500 1,080 Climbing Fort Worth Center
02:13PM 31.0319 -94.5214 34° Northeast 395 455 22,600 1,080 Climbing Fort Worth Center
02:14PM 31.1306 -94.4456 33° Northeast 405 466 23,700 1,020 Climbing Fort Worth Center
02:15PM 31.2186 -94.3769 34° Northeast 406 467 24,700 1,020 Climbing Fort Worth Center
02:16PM 31.3147 -94.3011 34° Northeast 420 483 25,800 1,020 Climbing Fort Worth Center
02:17PM 31.4131 -94.2247 34° Northeast 420 483 26,800 1,020 Climbing Fort Worth Center
02:18PM 31.5136 -94.1481 33° Northeast 420 483 27,900 1,020 Climbing Fort Worth Center
02:19PM 31.6136 -94.0689 34° Northeast 426 490 28,900 1,080 Climbing Fort Worth Center
02:20PM 31.7119 -93.9922 34° Northeast 426 490 30,100 1,200 Climbing Fort Worth Center
02:21PM 31.7922 -93.8817 49° Northeast 426 490 31,300 1,140 Climbing Fort Worth Center
02:22PM 31.8664 -93.7686 52° Northeast 426 490 32,400 1,020 Climbing Fort Worth Center
02:23PM 31.9422 -93.6556 52° Northeast 432 497 33,400 1,020 Climbing Fort Worth Center
02:24PM 32.0183 -93.5422 52° Northeast 438 504 34,500 780 Climbing Fort Worth Center
02:25PM 32.0919 -93.4311 52° Northeast 438 504 35,000 240 Climbing Fort Worth Center
02:26PM 32.1772 -93.2925 54° Northeast 438 504 35,000  Level Fort Worth Center
02:27PM 32.2567 -93.1686 53° Northeast 457 526 35,000  Level Fort Worth Center
02:28PM 32.3344 -93.0592 50° Northeast 466 536 35,000  Level Fort Worth Center
02:29PM 32.4272 -92.9094 54° Northeast 486 559 35,000  Level Fort Worth Center
02:30PM 32.5142 -92.7772 52° Northeast 503 579 35,000  Level Fort Worth Center
02:31PM 32.5969 -92.6472 53° Northeast 508 585 35,000  Level Fort Worth Center
02:32PM 32.6817 -92.5167 52° Northeast 498 573 35,000  Level Fort Worth Center
02:33PM 32.7664 -92.3861 52° Northeast 498 573 35,000  Level Fort Worth Center
02:34PM 32.8508 -92.2578 52° Northeast 498 573 35,000  Level Fort Worth Center
02:36PM 32.9500 -92.0978 54° Northeast 513 590 35,000  Level Memphis Center
02:37PM 33.0183 -91.9800 55° Northeast 489 563 35,000  Level Memphis Center
02:38PM 33.1056 -91.8503 51° Northeast 484 557 35,000  Level Memphis Center
02:39PM 33.1844 -91.7200 54° Northeast 489 563 35,000  Level Memphis Center
02:40PM 33.2714 -91.5872 52° Northeast 495 570 35,000  Level Memphis Center
02:41PM 33.3519 -91.4514 55° Northeast 495 570 35,000  Level Memphis Center
02:42PM 33.4364 -91.3206 52° Northeast 500 575 35,000  Level Memphis Center
02:43PM 33.5167 -91.1869 54° Northeast 500 575 35,000  Level Memphis Center
02:44PM 33.6011 -91.0506 53° Northeast 500 575 35,000  Level Memphis Center
02:45PM 33.6853 -90.9189 52° Northeast 500 575 35,000  Level Memphis Center
02:46PM 33.7672 -90.7844 54° Northeast 500 575 35,000  Level Memphis Center
02:47PM 33.8572 -90.6350 54° Northeast 500 575 35,000  Level Memphis Center
02:48PM 33.9411 -90.4975 54° Northeast 500 575 35,000  Level Memphis Center
02:49PM 34.0225 -90.3622 54° Northeast 498 573 35,000  Level Memphis Center
02:50PM 34.1058 -90.2242 54° Northeast 498 573 35,000  Level Memphis Center
02:51PM 34.1892 -90.0861 54° Northeast 505 581 35,000  Level Memphis Center
02:52PM 34.2700 -89.9475 55° Northeast 505 581 35,000  Level Memphis Center
02:53PM 34.3508 -89.8111 54° Northeast 496 571 35,000  Level Memphis Center
02:54PM 34.4294 -89.6772 55° Northeast 496 571 35,000  Level Memphis Center
02:55PM 34.5122 -89.5381 54° Northeast 501 577 35,000  Level Memphis Center
02:56PM 34.5947 -89.3958 55° Northeast 501 577 35,000  Level Memphis Center
02:57PM 34.6747 -89.2536 56° Northeast 506 582 35,000  Level Memphis Center
02:58PM 34.7003 -89.0889 79° East 493 567 35,000  Level Memphis Center
02:59PM 34.7153 -88.9194 84° East 493 567 35,000  Level Memphis Center
03:00PM 34.7278 -88.7525 85° East 499 574 35,000 300 Level Memphis Center
03:01PM 34.7422 -88.5803 84° East 504 580 35,700 840 Climbing Memphis Center
03:02PM 34.7525 -88.4436 85° East 477 549 36,700 600 Climbing Memphis Center
03:03PM 34.7667 -88.2817 84° East 471 542 37,000 120 Climbing Memphis Center
03:04PM 34.7803 -88.1119 84° East 481 554 37,000  Level Memphis Center
03:05PM 34.7919 -87.9419 85° East 502 578 37,000  Level Memphis Center
03:07PM 34.8172 -87.6086 85° East 522 601 37,000  Level Atlanta Center
03:08PM 34.8289 -87.4219 86° East 516 594 37,000  Level Atlanta Center
03:09PM 34.8417 -87.2503 85° East 516 594 37,000  Level Atlanta Center
03:10PM 34.8503 -87.0786 86° East 516 594 37,000  Level Atlanta Center
03:11PM 34.8628 -86.9094 85° East 516 594 37,000  Level Atlanta Center
03:12PM 34.8728 -86.7375 86° East 511 588 37,000  Level Atlanta Center
03:13PM 34.8828 -86.5683 86° East 511 588 37,000  Level Atlanta Center
03:14PM 34.8944 -86.3989 85° East 501 577 37,000  Level Atlanta Center
03:15PM 34.9039 -86.2294 86° East 501 577 37,000  Level Atlanta Center
03:16PM 34.9125 -86.0931 86° East 501 577 37,000  Level Atlanta Center
03:17PM 34.9219 -85.8881 87° East 496 571 37,000  Level Atlanta Center
03:18PM 34.9308 -85.7158 86° East 501 577 37,000  Level Atlanta Center
03:19PM 34.9392 -85.5489 86° East 501 577 37,000  Level Atlanta Center
03:20PM 34.9494 -85.3819 86° East 496 571 37,000  Level Atlanta Center
03:21PM 34.9572 -85.2172 87° East 496 571 37,000  Level Atlanta Center
03:22PM 35.0044 -85.0708 68° East 472 543 37,000  Level Atlanta Center
03:23PM 35.0744 -84.9294 59° Northeast 471 542 37,000  Level Atlanta Center
03:24PM 35.1486 -84.7881 57° Northeast 477 549 37,000  Level Atlanta Center
03:25PM 35.2181 -84.6439 59° Northeast 482 555 37,000  Level Atlanta Center
03:26PM 35.2939 -84.4994 57° Northeast 493 567 37,000  Level Atlanta Center
03:27PM 35.3633 -84.3544 60° Northeast 493 567 37,000  Level Atlanta Center
03:28PM 35.4344 -84.2119 58° Northeast 493 567 37,000  Level Atlanta Center
03:29PM 35.5075 -84.0642 59° Northeast 493 567 37,000  Level Atlanta Center
03:30PM 35.5806 -83.9186 58° Northeast 493 567 37,000  Level Atlanta Center
03:31PM 35.6511 -83.7756 59° Northeast 493 567 37,000  Level Atlanta Center
03:32PM 35.7217 -83.6269 60° Northeast 493 567 37,000  Level Atlanta Center
03:33PM 35.7964 -83.4806 58° Northeast 493 567 37,000  Level Atlanta Center
03:34PM 35.8664 -83.3342 59° Northeast 493 567 37,000 -300 Level Atlanta Center
03:35PM 35.9281 -83.2003 60° Northeast 493 567 36,500 -540 Descending Atlanta Center
03:36PM 36.0083 -83.0375 59° Northeast 498 573 36,000 -360 Descending Atlanta Center
03:37PM 36.0758 -82.8931 60° Northeast 489 563 35,800 -540 Descending Atlanta Center
03:38PM 36.1472 -82.7403 60° Northeast 495 570 35,000 -480 Descending Atlanta Center
03:39PM 36.2208 -82.5897 59° Northeast 500 575 34,900 -840 Descending Atlanta Center
03:40PM 36.2939 -82.4389 59° Northeast 505 581 33,400 -1,500 Descending Atlanta Center
03:41PM 36.3650 -82.2881 60° Northeast 505 581 32,000 -1,200 Descending Atlanta Center
03:42PM 36.4356 -82.1369 60° Northeast 505 581 31,100 -540 Descending Atlanta Center
03:43PM 36.5061 -81.9853 60° Northeast 505 581 31,000 -60 Descending Atlanta Center
03:44PM 36.5744 -81.8364 60° Northeast 505 581 31,000  Level Atlanta Center
03:45PM 36.6467 -81.6842 59° Northeast 500 575 31,000  Level Atlanta Center
03:46PM 36.7167 -81.5319 60° Northeast 500 575 31,000  Level Atlanta Center
03:47PM 36.7842 -81.3744 62° Northeast 510 587 31,000  Level Atlanta Center
03:48PM 36.8558 -81.2214 60° Northeast 510 587 31,000 -60 Level Atlanta Center
03:49PM 36.9253 -81.0711 60° Northeast 505 581 30,900 -660 Descending Atlanta Center
03:51PM 37.0667 -80.7614 60° Northeast 554 638 29,100 -660 Descending Washington Center
03:52PM 37.1103 -80.5742 74° East 507 583 29,000 -420 Descending Washington Center
03:53PM 37.1378 -80.4067 78° East 497 572 28,300 -1,080 Descending Washington Center
03:54PM 37.1656 -80.2311 79° East 502 578 26,900 -1,440 Descending Washington Center
03:55PM 37.1925 -80.0739 78° East 502 578 25,500 -1,500 Descending Washington Center
03:56PM 37.2175 -79.9083 79° East 497 572 24,000 -1,200 Descending Washington Center
03:57PM 37.2419 -79.7428 79° East 491 565 23,100 -540 Descending Washington Center
03:58PM 37.2733 -79.5592 78° East 480 552 23,000 -60 Descending Washington Center
03:59PM 37.2975 -79.3931 80° East 480 552 23,000 -480 Level Washington Center
04:00PM 37.3233 -79.2300 79° East 480 552 22,100 -1,200 Descending Washington Center
04:01PM 37.3464 -79.0847 79° East 480 552 20,600 -1,560 Descending Washington Center
04:02PM 37.3717 -78.9317 78° East 464 534 19,100 -1,380 Descending Washington Center
04:03PM 37.4461 -78.8042 54° Northeast 442 509 17,900 -1,500 Descending Washington Center
04:04PM 37.5289 -78.6742 51° Northeast 430 495 16,100 -1,440 Descending Washington Center
04:05PM 37.5964 -78.5614 53° Northeast 419 482 15,000 -1,260 Descending Washington Center
04:06PM 37.6592 -78.4642 51° Northeast 385 443 13,600 -1,440 Descending Washington Center
04:07PM 37.7156 -78.3744 52° Northeast 351 404 12,200 -1,500 Descending Washington Center
04:08PM 37.7572 -78.2842 60° Northeast 327 376 10,700 -1,440 Descending Washington Center
04:09PM 37.7175 -78.1986 120° Southeast 268 308 9,300 -900 Descending Washington Center
04:10PM 37.6733 -78.1106 122° Southeast 267 307 9,000 -180 Descending Washington Center
04:11PM 37.6253 -78.0147 122° Southeast 277 319 9,000 -720 Level Washington Center
04:12PM 37.6294 -77.9150 87° East 277 319 7,600 -1,440 Descending Washington Center
04:13PM 37.6439 -77.8133 80° East 277 319 6,100 -1,380 Descending Washington Center
04:14PM 37.6558 -77.7244 80° East 271 312 4,900 -1,200 Descending Washington Center
04:15PM 37.6614 -77.6406 85° East 252 290 3,700 -1,260 Descending Washington Center
04:16PM 37.6525 -77.5617 98° East 237 273 2,500 -840 Descending Washington Center
04:17PM 37.6367 -77.4931 106° East 213 245 2,100 -240 Descending Washington Center
04:18PM 37.6086 -77.4347 121° Southeast 202 232 2,100  Level Washington Center